createdAt,value
2019-03-30T00:01:41.133Z,33.10
2019-03-30T00:04:09.916Z,33.10
2019-03-30T00:06:38.831Z,33.01
2019-03-30T00:09:09.613Z,33.06
2019-03-30T00:11:38.824Z,33.04
2019-03-30T00:14:07.349Z,32.96
2019-03-30T00:16:36.985Z,32.90
2019-03-30T00:19:06.108Z,32.50
2019-03-30T00:21:35.085Z,32.65
2019-03-30T00:24:03.502Z,32.54
2019-03-30T00:26:32.672Z,32.51
2019-03-30T00:29:01.582Z,32.93
2019-03-30T00:31:31.596Z,33.03
2019-03-30T00:34:02.205Z,32.95
2019-03-30T00:36:31.357Z,33.06
2019-03-30T00:38:59.961Z,33.05
2019-03-30T00:41:28.420Z,33.12
2019-03-30T00:43:57.184Z,33.00
2019-03-30T00:46:26.079Z,33.02
2019-03-30T00:48:57.381Z,32.93
2019-03-30T00:51:26.324Z,32.88
2019-03-30T00:53:55.317Z,32.52
2019-03-30T00:56:24.917Z,32.35
2019-03-30T00:58:53.858Z,32.77
2019-03-30T01:01:22.786Z,32.78
2019-03-30T01:03:51.478Z,32.74
2019-03-30T01:06:19.951Z,32.85
2019-03-30T01:08:49.146Z,32.87
2019-03-30T01:11:17.995Z,32.89
2019-03-30T01:13:46.506Z,32.95
2019-03-30T01:16:15.390Z,33.02
2019-03-30T01:18:44.554Z,33.03
2019-03-30T01:21:13.980Z,32.98
2019-03-30T01:23:43.568Z,32.95
2019-03-30T01:26:12.316Z,32.94
2019-03-30T01:28:42.119Z,32.86
2019-03-30T01:31:10.597Z,32.83
2019-03-30T01:33:39.068Z,32.80
2019-03-30T01:36:08.244Z,32.57
2019-03-30T01:38:37.456Z,32.66
2019-03-30T01:41:07.230Z,32.70
2019-03-30T01:43:35.819Z,32.54
2019-03-30T01:46:04.273Z,32.80
2019-03-30T01:48:33.066Z,32.93
2019-03-30T01:51:01.974Z,32.82
2019-03-30T01:53:31.102Z,32.93
2019-03-30T01:56:00.946Z,32.93
2019-03-30T01:58:29.699Z,32.85
2019-03-30T02:00:58.802Z,32.93
2019-03-30T02:03:27.651Z,32.97
2019-03-30T02:05:56.264Z,32.92
2019-03-30T02:08:24.688Z,32.76
2019-03-30T02:10:53.586Z,32.88
2019-03-30T02:13:23.086Z,32.57
2019-03-30T02:15:52.763Z,32.85
2019-03-30T02:18:21.478Z,32.65
2019-03-30T02:20:50.559Z,32.38
2019-03-30T02:23:19.399Z,32.74
2019-03-30T02:25:48.172Z,32.91
2019-03-30T02:28:17.799Z,32.85
2019-03-30T02:30:46.762Z,32.84
2019-03-30T02:33:15.411Z,32.85
2019-03-30T02:35:44.602Z,32.88
2019-03-30T02:38:13.063Z,32.88
2019-03-30T02:40:41.640Z,32.88
2019-03-30T02:43:10.452Z,32.95
2019-03-30T02:45:39.958Z,32.79
2019-03-30T02:48:09.888Z,32.53
2019-03-30T02:50:49.374Z,32.47
2019-03-30T02:53:08.783Z,32.59
2019-03-30T02:55:37.764Z,32.70
2019-03-30T02:58:06.258Z,32.37
2019-03-30T03:00:35.499Z,32.56
2019-03-30T03:03:04.928Z,32.89
2019-03-30T03:05:34.228Z,32.78
2019-03-30T03:08:03.228Z,32.90
2019-03-30T03:10:32.397Z,32.84
2019-03-30T03:13:02.053Z,32.77
2019-03-30T03:15:30.613Z,32.70
2019-03-30T03:17:59.536Z,32.81
2019-03-30T03:20:28.649Z,32.85
2019-03-30T03:22:57.211Z,32.74
2019-03-30T03:25:25.993Z,32.70
2019-03-30T03:27:54.527Z,32.82
2019-03-30T03:30:23.079Z,32.81
2019-03-30T03:32:51.650Z,32.24
2019-03-30T03:35:20.691Z,32.32
2019-03-30T03:37:49.501Z,32.34
2019-03-30T03:40:18.403Z,32.67
2019-03-30T03:42:48.086Z,32.81
2019-03-30T03:45:16.968Z,32.80
2019-03-30T03:47:45.496Z,32.87
2019-03-30T03:50:40.440Z,32.90
2019-03-30T03:53:10.450Z,32.94
2019-03-30T03:55:39.944Z,32.89
2019-03-30T03:58:08.541Z,32.74
2019-03-30T04:00:37.394Z,32.79
2019-03-30T04:03:05.828Z,32.64
2019-03-30T04:05:34.918Z,32.69
2019-03-30T04:08:03.498Z,32.14
2019-03-30T04:10:33.833Z,32.32
2019-03-30T04:13:06.901Z,32.64
2019-03-30T04:15:35.246Z,32.83
2019-03-30T04:18:04.219Z,32.85
2019-03-30T04:20:32.735Z,32.93
2019-03-30T04:23:01.686Z,32.90
2019-03-30T04:25:30.587Z,32.85
2019-03-30T04:27:59.351Z,32.93
2019-03-30T04:30:28.227Z,32.94
2019-03-30T04:32:56.846Z,32.91
2019-03-30T04:35:26.149Z,32.69
2019-03-30T04:37:54.799Z,33.00
2019-03-30T04:40:23.531Z,32.60
2019-03-30T04:42:52.777Z,32.83
2019-03-30T04:45:21.302Z,32.37
2019-03-30T04:47:49.765Z,32.63
2019-03-30T04:50:18.840Z,32.94
2019-03-30T04:52:47.379Z,32.96
2019-03-30T04:55:17.119Z,33.10
2019-03-30T04:57:49.688Z,33.03
2019-03-30T05:00:17.176Z,32.92
2019-03-30T05:02:46.039Z,32.93
2019-03-30T05:05:14.878Z,32.97
2019-03-30T05:07:44.504Z,33.03
2019-03-30T05:10:13.006Z,33.16
2019-03-30T05:12:42.325Z,33.70
2019-03-30T05:15:10.950Z,33.30
2019-03-30T05:17:47.617Z,33.08
2019-03-30T05:20:10.701Z,32.83
2019-03-30T05:22:39.822Z,32.63
2019-03-30T05:25:08.339Z,32.53
2019-03-30T05:27:36.998Z,33.07
2019-03-30T05:30:06.146Z,32.90
2019-03-30T05:32:35.314Z,32.88
2019-03-30T05:35:04.411Z,32.98
2019-03-30T05:37:33.251Z,32.78
2019-03-30T05:40:02.382Z,32.90
2019-03-30T05:42:31.471Z,32.91
2019-03-30T05:45:00.469Z,32.95
2019-03-30T05:47:29.467Z,32.98
2019-03-30T05:49:58.205Z,32.85
2019-03-30T05:52:27.138Z,32.93
2019-03-30T05:54:56.484Z,32.77
2019-03-30T05:57:25.142Z,32.71
2019-03-30T05:59:55.950Z,32.47
2019-03-30T06:02:24.421Z,32.39
2019-03-30T06:04:52.869Z,32.56
2019-03-30T06:07:21.256Z,32.63
2019-03-30T06:09:49.781Z,32.77
2019-03-30T06:12:18.365Z,32.68
2019-03-30T06:14:47.389Z,32.68
2019-03-30T06:17:15.918Z,32.54
2019-03-30T06:19:45.785Z,32.89
2019-03-30T06:22:14.950Z,32.77
2019-03-30T06:24:43.547Z,32.84
2019-03-30T06:27:12.054Z,32.86
2019-03-30T06:29:41.595Z,32.60
2019-03-30T06:32:11.036Z,32.21
2019-03-30T06:34:39.798Z,32.29
2019-03-30T06:37:09.387Z,32.34
2019-03-30T06:39:38.752Z,32.14
2019-03-30T06:42:08.004Z,32.10
2019-03-30T06:44:37.543Z,32.42
2019-03-30T06:47:06.191Z,32.33
2019-03-30T06:49:35.448Z,32.33
2019-03-30T06:52:04.128Z,32.20
2019-03-30T06:54:33.296Z,32.04
2019-03-30T06:57:02.664Z,32.05
2019-03-30T06:59:31.696Z,31.96
2019-03-30T07:02:00.544Z,32.02
2019-03-30T07:04:30.234Z,31.95
2019-03-30T07:06:58.821Z,31.86
2019-03-30T07:09:27.318Z,31.62
2019-03-30T07:11:57.113Z,31.92
2019-03-30T07:14:25.819Z,31.62
2019-03-30T07:16:54.673Z,31.32
2019-03-30T07:19:23.513Z,31.24
2019-03-30T07:21:52.338Z,31.40
2019-03-30T07:24:21.879Z,31.73
2019-03-30T07:26:50.298Z,31.84
2019-03-30T07:29:19.254Z,31.87
2019-03-30T07:31:47.910Z,31.88
2019-03-30T07:34:16.767Z,31.77
2019-03-30T07:36:45.539Z,31.81
2019-03-30T07:39:15.085Z,31.83
2019-03-30T07:41:44.105Z,31.77
2019-03-30T07:44:12.633Z,31.51
2019-03-30T07:46:41.300Z,31.53
2019-03-30T07:49:09.884Z,31.54
2019-03-30T07:51:38.452Z,31.22
2019-03-30T07:54:08.430Z,30.96
2019-03-30T07:56:37.556Z,31.39
2019-03-30T07:59:07.057Z,31.01
2019-03-30T08:01:36.078Z,31.08
2019-03-30T08:04:04.736Z,31.34
2019-03-30T08:06:34.464Z,31.33
2019-03-30T08:09:03.927Z,31.30
2019-03-30T08:11:33.797Z,31.26
2019-03-30T08:14:02.940Z,31.23
2019-03-30T08:16:32.690Z,31.21
2019-03-30T08:19:01.885Z,31.19
2019-03-30T08:21:31.258Z,31.03
2019-03-30T08:23:59.991Z,30.73
2019-03-30T08:26:29.074Z,30.73
2019-03-30T08:28:58.463Z,30.53
2019-03-30T08:31:27.979Z,31.00
2019-03-30T08:33:56.798Z,30.94
2019-03-30T08:36:25.260Z,30.40
2019-03-30T08:38:54.159Z,30.62
2019-03-30T08:41:23.040Z,30.87
2019-03-30T08:43:51.720Z,30.85
2019-03-30T08:46:20.839Z,30.81
2019-03-30T08:48:49.484Z,30.85
2019-03-30T08:51:20.693Z,30.85
2019-03-30T08:53:54.908Z,30.79
2019-03-30T08:56:19.768Z,30.78
2019-03-30T08:58:49.120Z,30.69
2019-03-30T09:01:18.808Z,30.62
2019-03-30T09:03:48.135Z,31.20
2019-03-30T09:06:17.486Z,30.50
2019-03-30T09:08:46.161Z,30.32
2019-03-30T09:11:14.745Z,30.52
2019-03-30T09:13:44.337Z,30.55
2019-03-30T09:16:13.551Z,30.37
2019-03-30T09:18:42.562Z,30.79
2019-03-30T09:21:11.274Z,30.98
2019-03-30T09:23:40.512Z,30.88
2019-03-30T09:26:09.142Z,30.89
2019-03-30T09:28:39.159Z,31.08
2019-03-30T09:31:08.048Z,31.45
2019-03-30T09:33:36.758Z,31.04
2019-03-30T09:36:06.091Z,30.83
2019-03-30T09:38:34.964Z,30.79
2019-03-30T09:41:03.423Z,30.68
2019-03-30T09:43:32.491Z,31.12
2019-03-30T09:46:01.004Z,31.60
2019-03-30T09:48:29.916Z,31.64
2019-03-30T09:50:59.136Z,31.59
2019-03-30T09:53:27.944Z,31.47
2019-03-30T09:55:57.268Z,31.37
2019-03-30T09:58:27.354Z,31.53
2019-03-30T10:00:57.225Z,31.42
2019-03-30T10:03:27.129Z,31.39
2019-03-30T10:05:55.631Z,31.35
2019-03-30T10:08:24.591Z,31.35
2019-03-30T10:10:53.910Z,30.96
2019-03-30T10:13:22.873Z,30.81
2019-03-30T10:15:52.393Z,30.58
2019-03-30T10:18:21.662Z,30.46
2019-03-30T10:20:50.878Z,30.43
2019-03-30T10:23:22.034Z,29.73
2019-03-30T10:25:51.940Z,29.93
2019-03-30T10:28:22.188Z,29.43
2019-03-30T10:30:51.278Z,29.03
2019-03-30T10:33:20.133Z,28.98
2019-03-30T10:35:49.835Z,29.14
2019-03-30T10:38:18.787Z,29.04
2019-03-30T10:40:47.482Z,29.05
2019-03-30T10:43:16.794Z,29.02
2019-03-30T10:45:46.127Z,29.03
2019-03-30T10:48:16.984Z,29.26
2019-03-30T10:50:46.147Z,29.23
2019-03-30T10:53:14.851Z,29.23
2019-03-30T10:55:44.052Z,29.24
2019-03-30T10:58:13.044Z,29.49
2019-03-30T11:00:41.853Z,29.19
2019-03-30T11:03:10.948Z,29.17
2019-03-30T11:05:39.684Z,29.35
2019-03-30T11:08:09.550Z,29.21
2019-03-30T11:10:38.942Z,29.86
2019-03-30T11:13:07.330Z,29.82
2019-03-30T11:15:35.683Z,29.72
2019-03-30T11:18:04.903Z,29.90
2019-03-30T11:20:34.427Z,29.95
2019-03-30T11:23:04.950Z,29.98
2019-03-30T11:25:36.113Z,30.00
2019-03-30T11:28:04.838Z,30.04
2019-03-30T11:30:33.925Z,29.73
2019-03-30T11:33:04.363Z,29.44
2019-03-30T11:35:33.050Z,29.59
2019-03-30T11:38:01.545Z,29.76
2019-03-30T11:40:30.227Z,29.99
2019-03-30T11:42:59.393Z,30.19
2019-03-30T11:45:29.117Z,29.31
2019-03-30T11:47:58.439Z,29.64
2019-03-30T11:50:28.181Z,30.41
2019-03-30T11:52:56.937Z,30.36
2019-03-30T11:55:27.055Z,30.36
2019-03-30T11:57:55.677Z,30.28
2019-03-30T12:00:24.559Z,30.30
2019-03-30T12:02:53.129Z,30.28
2019-03-30T12:05:21.980Z,30.25
2019-03-30T12:07:53.124Z,30.26
2019-03-30T12:10:22.313Z,29.60
2019-03-30T12:12:51.072Z,29.96
2019-03-30T12:15:19.693Z,29.88
2019-03-30T12:17:48.482Z,28.96
2019-03-30T12:20:17.423Z,29.22
2019-03-30T12:22:46.378Z,29.62
2019-03-30T12:25:14.764Z,29.44
2019-03-30T12:27:44.242Z,29.82
2019-03-30T12:30:12.935Z,29.65
2019-03-30T12:32:41.587Z,29.60
2019-03-30T12:35:10.510Z,29.50
2019-03-30T12:37:39.646Z,29.36
2019-03-30T12:40:09.379Z,29.10
2019-03-30T12:42:41.962Z,29.02
2019-03-30T12:45:10.901Z,28.93
2019-03-30T12:47:40.212Z,28.21
2019-03-30T12:50:09.524Z,27.38
2019-03-30T12:52:38.826Z,28.01
2019-03-30T12:55:08.204Z,27.82
2019-03-30T12:57:37.714Z,27.55
2019-03-30T13:00:07.147Z,27.51
2019-03-30T13:02:35.884Z,27.46
2019-03-30T13:05:07.475Z,28.19
2019-03-30T13:07:36.461Z,28.29
2019-03-30T13:10:05.721Z,28.24
2019-03-30T13:12:34.755Z,28.04
2019-03-30T13:15:04.011Z,28.02
2019-03-30T13:17:32.726Z,27.98
2019-03-30T13:20:01.778Z,27.92
2019-03-30T13:22:31.263Z,27.98
2019-03-30T13:24:59.903Z,27.54
2019-03-30T13:27:28.838Z,27.19
2019-03-30T13:29:58.159Z,26.51
2019-03-30T13:32:26.890Z,26.30
2019-03-30T13:34:57.167Z,26.68
2019-03-30T13:37:26.115Z,26.90
2019-03-30T13:39:56.689Z,27.03
2019-03-30T13:42:25.915Z,27.53
2019-03-30T13:44:55.175Z,27.88
2019-03-30T13:47:23.674Z,27.86
2019-03-30T13:49:53.220Z,28.01
2019-03-30T13:52:23.079Z,28.03
2019-03-30T13:54:51.633Z,28.03
2019-03-30T13:57:21.438Z,27.98
2019-03-30T13:59:49.864Z,27.97
2019-03-30T14:02:20.057Z,27.60
2019-03-30T14:04:48.712Z,27.15
2019-03-30T14:07:18.379Z,27.03
2019-03-30T14:09:47.035Z,27.29
2019-03-30T14:12:16.627Z,27.41
2019-03-30T14:14:46.267Z,26.87
2019-03-30T14:17:15.171Z,27.61
2019-03-30T14:19:44.606Z,27.68
2019-03-30T14:22:13.867Z,27.86
2019-03-30T14:24:42.933Z,27.87
2019-03-30T14:27:11.593Z,27.99
2019-03-30T14:29:40.567Z,28.02
2019-03-30T14:32:09.622Z,27.90
2019-03-30T14:34:38.615Z,27.29
2019-03-30T14:37:07.828Z,27.29
2019-03-30T14:39:36.703Z,27.51
2019-03-30T14:42:06.158Z,27.25
2019-03-30T14:44:35.051Z,27.36
2019-03-30T14:47:03.791Z,26.32
2019-03-30T14:49:33.231Z,26.65
2019-03-30T14:52:01.911Z,26.74
2019-03-30T14:54:31.136Z,26.53
2019-03-30T14:57:00.372Z,27.04
2019-03-30T14:59:30.236Z,27.49
2019-03-30T15:01:59.431Z,27.42
2019-03-30T15:04:28.121Z,27.38
2019-03-30T15:06:56.933Z,27.41
2019-03-30T15:09:25.856Z,27.36
2019-03-30T15:11:55.311Z,27.39
2019-03-30T15:14:24.411Z,27.29
2019-03-30T15:16:53.354Z,27.10
2019-03-30T15:19:22.653Z,26.29
2019-03-30T15:21:51.652Z,26.07
2019-03-30T15:24:20.758Z,26.18
2019-03-30T15:26:59.658Z,25.95
2019-03-30T15:29:21.010Z,26.18
2019-03-30T15:31:49.714Z,26.02
2019-03-30T15:34:18.810Z,26.81
2019-03-30T15:36:47.783Z,26.38
2019-03-30T15:39:16.740Z,26.58
2019-03-30T15:41:45.799Z,26.76
2019-03-30T15:44:15.211Z,26.69
2019-03-30T15:46:44.235Z,26.58
2019-03-30T15:49:12.834Z,26.60
2019-03-30T15:51:41.700Z,26.55
2019-03-30T15:54:10.548Z,26.49
2019-03-30T15:56:39.815Z,26.26
2019-03-30T15:59:09.903Z,25.33
2019-03-30T16:01:38.489Z,23.19
2019-03-30T16:04:07.307Z,22.90
2019-03-30T16:06:37.505Z,23.46
2019-03-30T16:09:07.105Z,23.44
2019-03-30T16:11:38.400Z,23.92
2019-03-30T16:14:07.286Z,24.41
2019-03-30T16:16:37.041Z,24.81
2019-03-30T16:19:07.514Z,24.98
2019-03-30T16:21:37.168Z,25.26
2019-03-30T16:24:05.910Z,25.46
2019-03-30T16:26:41.947Z,25.63
2019-03-30T16:29:05.655Z,25.78
2019-03-30T16:31:35.463Z,25.85
2019-03-30T16:34:04.218Z,25.64
2019-03-30T16:36:33.575Z,25.22
2019-03-30T16:39:04.718Z,25.06
2019-03-30T16:41:34.622Z,24.87
2019-03-30T16:44:03.113Z,24.93
2019-03-30T16:46:32.072Z,25.40
2019-03-30T16:49:00.740Z,25.69
2019-03-30T16:51:30.320Z,24.36
2019-03-30T16:53:59.472Z,23.94
2019-03-30T16:56:28.683Z,24.15
2019-03-30T16:58:57.765Z,24.91
2019-03-30T17:01:26.460Z,24.91
2019-03-30T17:03:55.630Z,24.84
2019-03-30T17:06:24.728Z,25.05
2019-03-30T17:08:53.698Z,25.02
2019-03-30T17:11:22.825Z,24.93
2019-03-30T17:13:52.154Z,24.92
2019-03-30T17:16:21.461Z,25.07
2019-03-30T17:18:50.428Z,24.73
2019-03-30T17:21:19.955Z,24.83
2019-03-30T17:23:49.212Z,24.85
2019-03-30T17:26:18.822Z,25.19
2019-03-30T17:28:48.701Z,25.36
2019-03-30T17:31:18.115Z,25.28
2019-03-30T17:33:47.545Z,25.37
2019-03-30T17:36:18.717Z,25.43
2019-03-30T17:38:50.168Z,25.49
2019-03-30T17:41:18.964Z,25.52
2019-03-30T17:43:47.608Z,25.59
2019-03-30T17:46:17.655Z,25.39
2019-03-30T17:48:47.117Z,25.34
2019-03-30T17:51:16.493Z,25.45
2019-03-30T17:53:45.998Z,25.09
2019-03-30T17:56:15.333Z,25.01
2019-03-30T17:58:44.920Z,25.05
2019-03-30T18:01:15.714Z,25.17
2019-03-30T18:03:44.514Z,25.54
2019-03-30T18:06:13.265Z,25.60
2019-03-30T18:08:42.517Z,25.64
2019-03-30T18:11:11.610Z,25.01
2019-03-30T18:13:40.267Z,24.93
2019-03-30T18:16:09.223Z,24.83
2019-03-30T18:18:38.747Z,25.19
2019-03-30T18:21:07.407Z,25.46
2019-03-30T18:23:36.088Z,25.52
2019-03-30T18:26:05.285Z,25.68
2019-03-30T18:28:34.293Z,25.65
2019-03-30T18:31:02.922Z,25.96
2019-03-30T18:33:32.077Z,26.07
2019-03-30T18:36:01.420Z,26.19
2019-03-30T18:38:30.361Z,26.43
2019-03-30T18:40:58.877Z,26.87
2019-03-30T18:43:27.580Z,27.09
2019-03-30T18:45:56.677Z,27.28
2019-03-30T18:48:25.546Z,27.45
2019-03-30T18:50:54.053Z,27.57
2019-03-30T18:53:22.820Z,27.69
2019-03-30T18:55:52.431Z,27.93
2019-03-30T18:58:20.990Z,28.04
2019-03-30T19:00:49.694Z,28.12
2019-03-30T19:03:20.220Z,28.02
2019-03-30T19:05:50.490Z,28.18
2019-03-30T19:08:19.406Z,28.12
2019-03-30T19:10:48.283Z,28.24
2019-03-30T19:13:17.493Z,28.67
2019-03-30T19:15:46.715Z,28.47
2019-03-30T19:18:15.672Z,28.89
2019-03-30T19:20:45.151Z,29.03
2019-03-30T19:23:14.333Z,29.17
2019-03-30T19:25:43.280Z,29.21
2019-03-30T19:28:12.014Z,29.29
2019-03-30T19:30:42.347Z,29.34
2019-03-30T19:33:11.256Z,29.41
2019-03-30T19:35:40.377Z,29.44
2019-03-30T19:38:11.046Z,29.43
2019-03-30T19:40:39.984Z,29.47
2019-03-30T19:43:09.135Z,29.88
2019-03-30T19:45:37.894Z,29.81
2019-03-30T19:48:07.437Z,29.86
2019-03-30T19:50:37.205Z,29.74
2019-03-30T19:53:07.119Z,29.96
2019-03-30T19:55:36.697Z,30.03
2019-03-30T19:58:05.836Z,30.10
2019-03-30T20:00:38.494Z,30.06
2019-03-30T20:03:06.198Z,30.06
2019-03-30T20:05:35.455Z,30.12
2019-03-30T20:08:12.016Z,30.20
2019-03-30T20:10:52.164Z,30.15
2019-03-30T20:13:21.072Z,30.17
2019-03-30T20:15:50.373Z,30.19
2019-03-30T20:18:19.556Z,30.12
2019-03-30T20:20:48.200Z,29.61
2019-03-30T20:23:17.684Z,30.15
2019-03-30T20:25:46.552Z,30.64
2019-03-30T20:28:16.109Z,30.72
2019-03-30T20:30:44.713Z,31.04
2019-03-30T20:33:14.055Z,31.66
2019-03-30T20:35:43.252Z,31.92
2019-03-30T20:38:11.873Z,31.93
2019-03-30T20:40:41.382Z,32.22
2019-03-30T20:43:10.555Z,32.76
2019-03-30T20:45:39.325Z,32.44
2019-03-30T20:48:07.802Z,32.13
2019-03-30T20:50:36.849Z,31.89
2019-03-30T20:53:05.602Z,31.35
2019-03-30T20:55:35.530Z,31.69
2019-03-30T20:58:04.647Z,31.82
2019-03-30T21:00:33.174Z,31.02
2019-03-30T21:03:01.947Z,31.80
2019-03-30T21:05:30.766Z,31.97
2019-03-30T21:07:59.466Z,32.39
2019-03-30T21:10:28.135Z,32.80
2019-03-30T21:12:57.219Z,33.09
2019-03-30T21:15:25.950Z,33.10
2019-03-30T21:17:54.419Z,33.09
2019-03-30T21:20:23.065Z,33.40
2019-03-30T21:22:51.684Z,33.54
2019-03-30T21:25:20.314Z,33.54
2019-03-30T21:27:50.268Z,33.72
2019-03-30T21:30:19.500Z,34.37
2019-03-30T21:32:48.819Z,33.97
2019-03-30T21:35:18.609Z,33.77
2019-03-30T21:37:47.401Z,34.00
2019-03-30T21:40:16.263Z,33.88
2019-03-30T21:42:44.953Z,33.79
2019-03-30T21:45:13.549Z,34.04
2019-03-30T21:47:42.374Z,34.09
2019-03-30T21:50:12.991Z,34.03
2019-03-30T21:52:42.273Z,33.82
2019-03-30T21:55:11.258Z,33.77
2019-03-30T21:57:40.080Z,33.67
2019-03-30T22:00:10.997Z,33.65
2019-03-30T22:02:40.357Z,33.57
2019-03-30T22:05:08.903Z,33.38
2019-03-30T22:07:37.515Z,33.19
2019-03-30T22:10:07.773Z,33.24
2019-03-30T22:12:37.715Z,33.05
2019-03-30T22:15:06.807Z,32.89
2019-03-30T22:17:35.432Z,32.96
2019-03-30T22:20:04.485Z,32.74
2019-03-30T22:22:33.387Z,32.81
2019-03-30T22:25:02.427Z,33.13
2019-03-30T22:27:31.553Z,33.15
2019-03-30T22:30:01.962Z,33.23
2019-03-30T22:32:31.491Z,33.05
2019-03-30T22:35:00.450Z,33.07
2019-03-30T22:37:29.896Z,33.16
2019-03-30T22:39:58.801Z,33.19
2019-03-30T22:42:27.217Z,33.08
2019-03-30T22:44:56.167Z,32.95
2019-03-30T22:47:24.929Z,32.58
2019-03-30T22:49:54.134Z,32.05
2019-03-30T22:52:22.907Z,32.60
2019-03-30T22:54:52.310Z,32.39
2019-03-30T22:57:21.287Z,32.60
2019-03-30T22:59:49.935Z,32.80
2019-03-30T23:02:18.383Z,32.95
2019-03-30T23:04:47.307Z,32.85
2019-03-30T23:07:15.855Z,32.85
2019-03-30T23:09:44.424Z,32.94
2019-03-30T23:12:12.937Z,32.91
2019-03-30T23:14:41.602Z,32.85
2019-03-30T23:17:10.411Z,32.80
2019-03-30T23:19:39.483Z,32.80
2019-03-30T23:22:08.369Z,32.77
2019-03-30T23:24:37.482Z,32.86
2019-03-30T23:27:06.785Z,32.63
2019-03-30T23:29:35.573Z,32.66
2019-03-30T23:32:04.196Z,32.56
2019-03-30T23:34:33.195Z,32.74
2019-03-30T23:37:02.386Z,32.53
2019-03-30T23:39:32.029Z,32.64
2019-03-30T23:42:00.678Z,32.82
2019-03-30T23:44:30.025Z,32.91
2019-03-30T23:46:58.818Z,32.76
2019-03-30T23:49:28.370Z,32.76
2019-03-30T23:51:57.103Z,32.85
2019-03-30T23:54:27.435Z,32.77
2019-03-30T23:56:56.623Z,32.88
2019-03-30T23:59:25.144Z,32.81
